sensor_id;sensor_type;location;lat;lon;timestamp;P1;durP1;ratioP1;P2;durP2;ratioP2
67747;SDS011;54543;50.712;6.070;2023-07-13T00:00:34;1.17;;;0.90;;
67747;SDS011;54543;50.712;6.070;2023-07-13T00:03:01;2.35;;;1.10;;
67747;SDS011;54543;50.712;6.070;2023-07-13T00:05:27;2.75;;;1.25;;
67747;SDS011;54543;50.712;6.070;2023-07-13T00:07:53;2.08;;;1.27;;
67747;SDS011;54543;50.712;6.070;2023-07-13T00:10:20;2.00;;;1.08;;
67747;SDS011;54543;50.712;6.070;2023-07-13T00:12:46;2.67;;;1.10;;
67747;SDS011;54543;50.712;6.070;2023-07-13T00:15:13;2.42;;;1.20;;
67747;SDS011;54543;50.712;6.070;2023-07-13T00:17:41;2.13;;;1.30;;
67747;SDS011;54543;50.712;6.070;2023-07-13T00:20:11;3.13;;;1.27;;
67747;SDS011;54543;50.712;6.070;2023-07-13T00:22:37;2.90;;;1.67;;
67747;SDS011;54543;50.712;6.070;2023-07-13T00:25:03;1.77;;;1.13;;
67747;SDS011;54543;50.712;6.070;2023-07-13T00:27:29;2.30;;;1.30;;
67747;SDS011;54543;50.712;6.070;2023-07-13T00:29:57;3.28;;;1.10;;
67747;SDS011;54543;50.712;6.070;2023-07-13T00:32:25;4.25;;;1.27;;
67747;SDS011;54543;50.712;6.070;2023-07-13T00:34:51;2.60;;;1.40;;
67747;SDS011;54543;50.712;6.070;2023-07-13T00:37:17;2.90;;;1.58;;
67747;SDS011;54543;50.712;6.070;2023-07-13T00:39:43;4.20;;;1.83;;
67747;SDS011;54543;50.712;6.070;2023-07-13T00:42:09;2.72;;;1.13;;
67747;SDS011;54543;50.712;6.070;2023-07-13T00:44:37;3.13;;;1.30;;
67747;SDS011;54543;50.712;6.070;2023-07-13T00:47:05;1.70;;;1.15;;
67747;SDS011;54543;50.712;6.070;2023-07-13T00:49:31;1.77;;;1.00;;
67747;SDS011;54543;50.712;6.070;2023-07-13T00:52:00;2.10;;;1.20;;
67747;SDS011;54543;50.712;6.070;2023-07-13T00:54:38;2.45;;;0.95;;
67747;SDS011;54543;50.712;6.070;2023-07-13T00:57:07;2.60;;;1.20;;
67747;SDS011;54543;50.712;6.070;2023-07-13T00:59:45;2.92;;;1.10;;
67747;SDS011;54543;50.712;6.070;2023-07-13T01:02:13;2.17;;;1.02;;
67747;SDS011;54543;50.712;6.070;2023-07-13T01:04:39;1.33;;;0.90;;
67747;SDS011;54543;50.712;6.070;2023-07-13T01:07:06;2.47;;;1.13;;
67747;SDS011;54543;50.712;6.070;2023-07-13T01:09:31;1.98;;;1.15;;
67747;SDS011;54543;50.712;6.070;2023-07-13T01:11:57;1.98;;;0.98;;
67747;SDS011;54543;50.712;6.070;2023-07-13T01:14:24;3.63;;;1.15;;
67747;SDS011;54543;50.712;6.070;2023-07-13T01:16:50;3.15;;;1.00;;
67747;SDS011;54543;50.712;6.070;2023-07-13T01:22:14;2.08;;;1.10;;
67747;SDS011;54543;50.712;6.070;2023-07-13T01:24:43;3.95;;;1.23;;
67747;SDS011;54543;50.712;6.070;2023-07-13T01:27:14;1.98;;;1.35;;
67747;SDS011;54543;50.712;6.070;2023-07-13T01:29:43;4.32;;;1.17;;
67747;SDS011;54543;50.712;6.070;2023-07-13T01:32:15;1.77;;;1.00;;
67747;SDS011;54543;50.712;6.070;2023-07-13T01:34:46;1.92;;;1.00;;
67747;SDS011;54543;50.712;6.070;2023-07-13T01:37:12;1.98;;;0.80;;
67747;SDS011;54543;50.712;6.070;2023-07-13T01:39:38;2.28;;;0.95;;
67747;SDS011;54543;50.712;6.070;2023-07-13T01:42:04;1.02;;;0.75;;
67747;SDS011;54543;50.712;6.070;2023-07-13T01:44:29;2.42;;;1.00;;
67747;SDS011;54543;50.712;6.070;2023-07-13T01:46:55;2.70;;;1.17;;
67747;SDS011;54543;50.712;6.070;2023-07-13T01:49:21;2.20;;;1.10;;
67747;SDS011;54543;50.712;6.070;2023-07-13T01:51:47;1.90;;;1.05;;
67747;SDS011;54543;50.712;6.070;2023-07-13T01:54:12;1.48;;;1.00;;
67747;SDS011;54543;50.712;6.070;2023-07-13T01:56:38;1.70;;;1.10;;
67747;SDS011;54543;50.712;6.070;2023-07-13T01:59:05;1.88;;;0.82;;
67747;SDS011;54543;50.712;6.070;2023-07-13T02:01:30;2.58;;;1.00;;
67747;SDS011;54543;50.712;6.070;2023-07-13T02:03:56;3.70;;;0.98;;
67747;SDS011;54543;50.712;6.070;2023-07-13T02:06:21;2.00;;;0.98;;
67747;SDS011;54543;50.712;6.070;2023-07-13T02:08:47;1.83;;;0.98;;
67747;SDS011;54543;50.712;6.070;2023-07-13T02:11:12;1.52;;;0.82;;
67747;SDS011;54543;50.712;6.070;2023-07-13T02:13:38;2.00;;;1.00;;
67747;SDS011;54543;50.712;6.070;2023-07-13T02:16:03;3.63;;;1.00;;
67747;SDS011;54543;50.712;6.070;2023-07-13T02:18:29;3.17;;;0.82;;
67747;SDS011;54543;50.712;6.070;2023-07-13T02:20:55;3.00;;;1.00;;
67747;SDS011;54543;50.712;6.070;2023-07-13T02:23:20;3.03;;;0.80;;
67747;SDS011;54543;50.712;6.070;2023-07-13T02:25:46;1.35;;;0.98;;
67747;SDS011;54543;50.712;6.070;2023-07-13T02:28:12;2.83;;;1.25;;
67747;SDS011;54543;50.712;6.070;2023-07-13T02:30:37;3.63;;;1.02;;
67747;SDS011;54543;50.712;6.070;2023-07-13T02:33:03;1.55;;;0.98;;
67747;SDS011;54543;50.712;6.070;2023-07-13T02:35:29;3.40;;;1.20;;
67747;SDS011;54543;50.712;6.070;2023-07-13T02:37:55;3.55;;;1.23;;
67747;SDS011;54543;50.712;6.070;2023-07-13T02:40:21;1.88;;;1.05;;
67747;SDS011;54543;50.712;6.070;2023-07-13T02:42:46;3.10;;;1.25;;
67747;SDS011;54543;50.712;6.070;2023-07-13T02:45:12;1.77;;;1.10;;
67747;SDS011;54543;50.712;6.070;2023-07-13T02:47:39;2.92;;;0.98;;
67747;SDS011;54543;50.712;6.070;2023-07-13T02:50:06;3.40;;;1.20;;
67747;SDS011;54543;50.712;6.070;2023-07-13T02:52:32;2.00;;;0.98;;
67747;SDS011;54543;50.712;6.070;2023-07-13T02:54:57;2.05;;;1.00;;
67747;SDS011;54543;50.712;6.070;2023-07-13T02:57:23;2.30;;;0.90;;
67747;SDS011;54543;50.712;6.070;2023-07-13T02:59:48;1.85;;;0.85;;
67747;SDS011;54543;50.712;6.070;2023-07-13T03:02:14;1.55;;;1.08;;
67747;SDS011;54543;50.712;6.070;2023-07-13T03:04:40;1.67;;;0.85;;
67747;SDS011;54543;50.712;6.070;2023-07-13T03:07:06;3.85;;;0.90;;
67747;SDS011;54543;50.712;6.070;2023-07-13T03:09:33;1.00;;;0.82;;
67747;SDS011;54543;50.712;6.070;2023-07-13T03:11:59;2.03;;;1.02;;
67747;SDS011;54543;50.712;6.070;2023-07-13T03:14:25;3.08;;;1.40;;
67747;SDS011;54543;50.712;6.070;2023-07-13T03:16:50;2.55;;;1.30;;
67747;SDS011;54543;50.712;6.070;2023-07-13T03:19:17;4.30;;;1.38;;
67747;SDS011;54543;50.712;6.070;2023-07-13T03:21:43;2.28;;;1.35;;
67747;SDS011;54543;50.712;6.070;2023-07-13T03:24:08;2.60;;;1.50;;
67747;SDS011;54543;50.712;6.070;2023-07-13T03:26:34;3.97;;;1.95;;
67747;SDS011;54543;50.712;6.070;2023-07-13T03:29:00;3.28;;;1.80;;
67747;SDS011;54543;50.712;6.070;2023-07-13T03:31:26;3.17;;;1.55;;
67747;SDS011;54543;50.712;6.070;2023-07-13T03:33:54;6.00;;;2.10;;
67747;SDS011;54543;50.712;6.070;2023-07-13T03:36:23;3.45;;;1.73;;
67747;SDS011;54543;50.712;6.070;2023-07-13T03:38:53;2.70;;;1.40;;
67747;SDS011;54543;50.712;6.070;2023-07-13T03:41:20;3.63;;;2.00;;
67747;SDS011;54543;50.712;6.070;2023-07-13T03:43:46;4.05;;;1.77;;
67747;SDS011;54543;50.712;6.070;2023-07-13T03:46:13;2.67;;;1.52;;
67747;SDS011;54543;50.712;6.070;2023-07-13T03:48:40;3.28;;;1.60;;
67747;SDS011;54543;50.712;6.070;2023-07-13T03:51:08;3.17;;;1.33;;
67747;SDS011;54543;50.712;6.070;2023-07-13T03:53:37;3.80;;;1.33;;
67747;SDS011;54543;50.712;6.070;2023-07-13T03:56:04;1.60;;;1.00;;
67747;SDS011;54543;50.712;6.070;2023-07-13T03:58:34;3.33;;;2.03;;
67747;SDS011;54543;50.712;6.070;2023-07-13T04:01:01;2.20;;;1.23;;
67747;SDS011;54543;50.712;6.070;2023-07-13T04:03:29;3.30;;;1.33;;
67747;SDS011;54543;50.712;6.070;2023-07-13T04:05:57;2.38;;;1.40;;
67747;SDS011;54543;50.712;6.070;2023-07-13T04:08:27;7.72;;;2.10;;
67747;SDS011;54543;50.712;6.070;2023-07-13T04:10:53;1.73;;;1.20;;
67747;SDS011;54543;50.712;6.070;2023-07-13T04:13:19;3.72;;;1.63;;
67747;SDS011;54543;50.712;6.070;2023-07-13T04:15:44;2.35;;;1.27;;
67747;SDS011;54543;50.712;6.070;2023-07-13T04:18:10;2.50;;;1.40;;
67747;SDS011;54543;50.712;6.070;2023-07-13T04:20:35;2.45;;;1.35;;
67747;SDS011;54543;50.712;6.070;2023-07-13T04:23:01;2.70;;;1.30;;
67747;SDS011;54543;50.712;6.070;2023-07-13T04:25:27;6.50;;;1.95;;
67747;SDS011;54543;50.712;6.070;2023-07-13T04:27:53;2.88;;;1.15;;
67747;SDS011;54543;50.712;6.070;2023-07-13T04:30:19;3.13;;;1.40;;
67747;SDS011;54543;50.712;6.070;2023-07-13T04:32:45;2.83;;;1.40;;
67747;SDS011;54543;50.712;6.070;2023-07-13T04:35:11;2.90;;;1.27;;
67747;SDS011;54543;50.712;6.070;2023-07-13T04:37:37;2.75;;;1.30;;
67747;SDS011;54543;50.712;6.070;2023-07-13T04:40:02;4.60;;;1.50;;
67747;SDS011;54543;50.712;6.070;2023-07-13T04:42:28;3.28;;;1.50;;
67747;SDS011;54543;50.712;6.070;2023-07-13T04:44:54;4.63;;;2.10;;
67747;SDS011;54543;50.712;6.070;2023-07-13T04:47:20;6.22;;;3.75;;
67747;SDS011;54543;50.712;6.070;2023-07-13T04:49:46;5.53;;;2.70;;
67747;SDS011;54543;50.712;6.070;2023-07-13T04:52:12;5.95;;;2.47;;
67747;SDS011;54543;50.712;6.070;2023-07-13T04:54:37;3.80;;;2.05;;
67747;SDS011;54543;50.712;6.070;2023-07-13T04:57:04;3.90;;;1.88;;
67747;SDS011;54543;50.712;6.070;2023-07-13T04:59:33;4.30;;;1.50;;
67747;SDS011;54543;50.712;6.070;2023-07-13T05:01:59;3.65;;;2.33;;
67747;SDS011;54543;50.712;6.070;2023-07-13T05:04:26;3.53;;;1.80;;
67747;SDS011;54543;50.712;6.070;2023-07-13T05:06:52;3.58;;;1.85;;
67747;SDS011;54543;50.712;6.070;2023-07-13T05:09:18;5.28;;;1.73;;
67747;SDS011;54543;50.712;6.070;2023-07-13T05:11:43;3.97;;;2.20;;
67747;SDS011;54543;50.712;6.070;2023-07-13T05:14:09;6.95;;;2.67;;
67747;SDS011;54543;50.712;6.070;2023-07-13T05:16:35;5.03;;;1.98;;
67747;SDS011;54543;50.712;6.070;2023-07-13T05:19:01;5.60;;;2.30;;
67747;SDS011;54543;50.712;6.070;2023-07-13T05:21:27;6.30;;;2.05;;
67747;SDS011;54543;50.712;6.070;2023-07-13T05:23:53;6.45;;;2.28;;
67747;SDS011;54543;50.712;6.070;2023-07-13T05:26:19;7.15;;;2.80;;
67747;SDS011;54543;50.712;6.070;2023-07-13T05:28:46;3.97;;;2.05;;
67747;SDS011;54543;50.712;6.070;2023-07-13T05:31:12;4.65;;;2.13;;
67747;SDS011;54543;50.712;6.070;2023-07-13T05:33:37;5.25;;;1.90;;
67747;SDS011;54543;50.712;6.070;2023-07-13T05:36:03;6.57;;;2.88;;
67747;SDS011;54543;50.712;6.070;2023-07-13T05:38:29;5.30;;;2.80;;
67747;SDS011;54543;50.712;6.070;2023-07-13T05:40:55;5.68;;;2.22;;
67747;SDS011;54543;50.712;6.070;2023-07-13T05:43:21;5.63;;;3.17;;
67747;SDS011;54543;50.712;6.070;2023-07-13T05:45:48;2.80;;;1.70;;
67747;SDS011;54543;50.712;6.070;2023-07-13T05:48:14;5.45;;;1.75;;
67747;SDS011;54543;50.712;6.070;2023-07-13T05:50:40;6.18;;;2.17;;
67747;SDS011;54543;50.712;6.070;2023-07-13T05:53:06;7.78;;;2.30;;
67747;SDS011;54543;50.712;6.070;2023-07-13T05:55:32;9.40;;;2.08;;
67747;SDS011;54543;50.712;6.070;2023-07-13T05:57:58;5.85;;;2.47;;
67747;SDS011;54543;50.712;6.070;2023-07-13T06:00:24;5.70;;;1.80;;
67747;SDS011;54543;50.712;6.070;2023-07-13T06:02:50;4.95;;;2.40;;
67747;SDS011;54543;50.712;6.070;2023-07-13T06:05:16;4.40;;;2.25;;
67747;SDS011;54543;50.712;6.070;2023-07-13T06:07:42;11.88;;;4.03;;
67747;SDS011;54543;50.712;6.070;2023-07-13T06:10:07;5.95;;;2.40;;
67747;SDS011;54543;50.712;6.070;2023-07-13T06:12:33;5.03;;;1.98;;
67747;SDS011;54543;50.712;6.070;2023-07-13T06:14:59;5.38;;;2.33;;
67747;SDS011;54543;50.712;6.070;2023-07-13T06:17:25;5.20;;;1.80;;
67747;SDS011;54543;50.712;6.070;2023-07-13T06:19:50;5.13;;;2.45;;
67747;SDS011;54543;50.712;6.070;2023-07-13T06:22:16;6.43;;;2.33;;
67747;SDS011;54543;50.712;6.070;2023-07-13T06:24:41;7.18;;;2.20;;
67747;SDS011;54543;50.712;6.070;2023-07-13T06:27:07;8.50;;;2.30;;
67747;SDS011;54543;50.712;6.070;2023-07-13T06:29:32;5.38;;;2.10;;
67747;SDS011;54543;50.712;6.070;2023-07-13T06:31:58;5.72;;;2.20;;
67747;SDS011;54543;50.712;6.070;2023-07-13T06:34:24;6.47;;;2.40;;
67747;SDS011;54543;50.712;6.070;2023-07-13T06:36:49;8.38;;;2.97;;
67747;SDS011;54543;50.712;6.070;2023-07-13T06:39:15;7.65;;;2.25;;
67747;SDS011;54543;50.712;6.070;2023-07-13T06:41:40;5.65;;;2.45;;
67747;SDS011;54543;50.712;6.070;2023-07-13T06:44:06;6.82;;;2.42;;
67747;SDS011;54543;50.712;6.070;2023-07-13T06:46:32;6.45;;;2.13;;
67747;SDS011;54543;50.712;6.070;2023-07-13T06:48:58;5.93;;;2.10;;
67747;SDS011;54543;50.712;6.070;2023-07-13T06:51:24;7.03;;;2.63;;
67747;SDS011;54543;50.712;6.070;2023-07-13T06:53:51;3.97;;;1.73;;
67747;SDS011;54543;50.712;6.070;2023-07-13T06:56:16;6.15;;;2.67;;
67747;SDS011;54543;50.712;6.070;2023-07-13T06:58:42;5.30;;;2.17;;
67747;SDS011;54543;50.712;6.070;2023-07-13T07:01:08;4.35;;;2.00;;
67747;SDS011;54543;50.712;6.070;2023-07-13T07:03:33;7.97;;;2.20;;
67747;SDS011;54543;50.712;6.070;2023-07-13T07:06:00;6.25;;;2.45;;
67747;SDS011;54543;50.712;6.070;2023-07-13T07:08:27;4.45;;;2.55;;
67747;SDS011;54543;50.712;6.070;2023-07-13T07:10:52;5.47;;;2.08;;
67747;SDS011;54543;50.712;6.070;2023-07-13T07:13:19;6.07;;;2.28;;
67747;SDS011;54543;50.712;6.070;2023-07-13T07:15:45;4.93;;;2.30;;
67747;SDS011;54543;50.712;6.070;2023-07-13T07:18:10;6.55;;;2.15;;
67747;SDS011;54543;50.712;6.070;2023-07-13T07:20:36;4.57;;;1.80;;
67747;SDS011;54543;50.712;6.070;2023-07-13T07:23:01;6.57;;;2.25;;
67747;SDS011;54543;50.712;6.070;2023-07-13T07:25:27;4.55;;;1.90;;
67747;SDS011;54543;50.712;6.070;2023-07-13T07:27:57;4.72;;;1.98;;
67747;SDS011;54543;50.712;6.070;2023-07-13T07:30:24;3.58;;;1.80;;
67747;SDS011;54543;50.712;6.070;2023-07-13T07:32:49;2.85;;;1.60;;
67747;SDS011;54543;50.712;6.070;2023-07-13T07:35:15;3.80;;;2.00;;
67747;SDS011;54543;50.712;6.070;2023-07-13T07:37:40;5.25;;;2.40;;
67747;SDS011;54543;50.712;6.070;2023-07-13T07:40:07;4.75;;;2.00;;
67747;SDS011;54543;50.712;6.070;2023-07-13T07:42:33;4.45;;;2.28;;
67747;SDS011;54543;50.712;6.070;2023-07-13T07:44:59;7.00;;;2.53;;
67747;SDS011;54543;50.712;6.070;2023-07-13T07:47:26;5.15;;;2.17;;
67747;SDS011;54543;50.712;6.070;2023-07-13T07:49:51;6.18;;;2.28;;
67747;SDS011;54543;50.712;6.070;2023-07-13T07:52:17;4.65;;;2.20;;
67747;SDS011;54543;50.712;6.070;2023-07-13T07:54:43;4.32;;;1.92;;
67747;SDS011;54543;50.712;6.070;2023-07-13T07:57:09;4.43;;;1.80;;
67747;SDS011;54543;50.712;6.070;2023-07-13T07:59:35;5.72;;;2.10;;
67747;SDS011;54543;50.712;6.070;2023-07-13T08:02:02;4.45;;;2.15;;
67747;SDS011;54543;50.712;6.070;2023-07-13T08:04:28;4.18;;;2.17;;
67747;SDS011;54543;50.712;6.070;2023-07-13T08:06:53;3.72;;;1.80;;
67747;SDS011;54543;50.712;6.070;2023-07-13T08:09:21;4.05;;;2.08;;
67747;SDS011;54543;50.712;6.070;2023-07-13T08:11:46;4.03;;;1.88;;
67747;SDS011;54543;50.712;6.070;2023-07-13T08:14:12;3.92;;;1.80;;
67747;SDS011;54543;50.712;6.070;2023-07-13T08:16:38;3.25;;;1.95;;
67747;SDS011;54543;50.712;6.070;2023-07-13T08:19:04;4.47;;;1.70;;
67747;SDS011;54543;50.712;6.070;2023-07-13T08:21:31;4.70;;;2.00;;
67747;SDS011;54543;50.712;6.070;2023-07-13T08:23:56;4.88;;;2.00;;
67747;SDS011;54543;50.712;6.070;2023-07-13T08:26:22;4.22;;;1.67;;
67747;SDS011;54543;50.712;6.070;2023-07-13T08:28:48;4.28;;;2.10;;
67747;SDS011;54543;50.712;6.070;2023-07-13T08:31:13;3.47;;;1.92;;
67747;SDS011;54543;50.712;6.070;2023-07-13T08:33:40;6.40;;;1.70;;
67747;SDS011;54543;50.712;6.070;2023-07-13T08:36:06;3.70;;;1.88;;
67747;SDS011;54543;50.712;6.070;2023-07-13T08:38:32;2.90;;;1.80;;
67747;SDS011;54543;50.712;6.070;2023-07-13T08:40:58;7.15;;;1.90;;
67747;SDS011;54543;50.712;6.070;2023-07-13T08:43:30;4.32;;;2.22;;
67747;SDS011;54543;50.712;6.070;2023-07-13T08:46:03;6.82;;;1.95;;
67747;SDS011;54543;50.712;6.070;2023-07-13T08:48:41;4.82;;;1.90;;
67747;SDS011;54543;50.712;6.070;2023-07-13T08:54:49;6.63;;;1.70;;
67747;SDS011;54543;50.712;6.070;2023-07-13T08:57:15;2.80;;;1.55;;
67747;SDS011;54543;50.712;6.070;2023-07-13T08:59:44;6.50;;;1.90;;
67747;SDS011;54543;50.712;6.070;2023-07-13T09:02:22;3.08;;;1.88;;
67747;SDS011;54543;50.712;6.070;2023-07-13T09:04:59;6.25;;;2.03;;
67747;SDS011;54543;50.712;6.070;2023-07-13T09:10:48;4.65;;;1.98;;
67747;SDS011;54543;50.712;6.070;2023-07-13T09:15:51;2.90;;;1.73;;
67747;SDS011;54543;50.712;6.070;2023-07-13T09:18:26;5.30;;;1.80;;
67747;SDS011;54543;50.712;6.070;2023-07-13T09:21:43;3.97;;;1.70;;
67747;SDS011;54543;50.712;6.070;2023-07-13T09:23:56;5.10;;;2.00;;
67747;SDS011;54543;50.712;6.070;2023-07-13T09:26:26;5.10;;;1.80;;
67747;SDS011;54543;50.712;6.070;2023-07-13T09:28:59;3.95;;;1.70;;
67747;SDS011;54543;50.712;6.070;2023-07-13T09:31:41;3.08;;;1.40;;
67747;SDS011;54543;50.712;6.070;2023-07-13T09:34:10;3.03;;;1.50;;
67747;SDS011;54543;50.712;6.070;2023-07-13T09:36:37;4.78;;;1.90;;
67747;SDS011;54543;50.712;6.070;2023-07-13T09:39:04;4.70;;;1.88;;
67747;SDS011;54543;50.712;6.070;2023-07-13T09:42:01;4.90;;;1.77;;
67747;SDS011;54543;50.712;6.070;2023-07-13T09:44:36;7.03;;;1.98;;
67747;SDS011;54543;50.712;6.070;2023-07-13T09:47:12;3.78;;;1.77;;
67747;SDS011;54543;50.712;6.070;2023-07-13T09:49:41;3.88;;;1.80;;
67747;SDS011;54543;50.712;6.070;2023-07-13T09:52:11;4.28;;;1.83;;
67747;SDS011;54543;50.712;6.070;2023-07-13T09:54:39;3.00;;;1.50;;
67747;SDS011;54543;50.712;6.070;2023-07-13T09:57:14;3.75;;;1.65;;
67747;SDS011;54543;50.712;6.070;2023-07-13T09:59:43;4.40;;;1.80;;
67747;SDS011;54543;50.712;6.070;2023-07-13T10:07:34;6.38;;;1.30;;
67747;SDS011;54543;50.712;6.070;2023-07-13T10:10:12;3.83;;;1.25;;
67747;SDS011;54543;50.712;6.070;2023-07-13T10:12:46;3.90;;;1.58;;
67747;SDS011;54543;50.712;6.070;2023-07-13T10:15:30;3.20;;;1.40;;
67747;SDS011;54543;50.712;6.070;2023-07-13T10:17:56;2.22;;;1.20;;
67747;SDS011;54543;50.712;6.070;2023-07-13T10:20:24;2.80;;;1.42;;
67747;SDS011;54543;50.712;6.070;2023-07-13T10:25:25;4.80;;;1.52;;
67747;SDS011;54543;50.712;6.070;2023-07-13T10:27:56;3.17;;;1.20;;
67747;SDS011;54543;50.712;6.070;2023-07-13T10:30:31;4.13;;;1.50;;
67747;SDS011;54543;50.712;6.070;2023-07-13T10:33:03;2.53;;;1.25;;
67747;SDS011;54543;50.712;6.070;2023-07-13T10:35:36;3.22;;;1.48;;
67747;SDS011;54543;50.712;6.070;2023-07-13T10:38:10;4.72;;;1.58;;
67747;SDS011;54543;50.712;6.070;2023-07-13T10:40:45;4.28;;;1.48;;
67747;SDS011;54543;50.712;6.070;2023-07-13T10:43:31;3.30;;;1.50;;
67747;SDS011;54543;50.712;6.070;2023-07-13T10:46:02;2.97;;;1.45;;
67747;SDS011;54543;50.712;6.070;2023-07-13T10:48:30;3.55;;;1.58;;
67747;SDS011;54543;50.712;6.070;2023-07-13T10:50:59;3.60;;;1.33;;
67747;SDS011;54543;50.712;6.070;2023-07-13T10:53:30;2.40;;;1.15;;
67747;SDS011;54543;50.712;6.070;2023-07-13T10:55:59;6.35;;;1.80;;
67747;SDS011;54543;50.712;6.070;2023-07-13T10:58:36;3.33;;;1.25;;
67747;SDS011;54543;50.712;6.070;2023-07-13T11:01:06;4.35;;;1.70;;
67747;SDS011;54543;50.712;6.070;2023-07-13T11:06:40;3.97;;;1.50;;
67747;SDS011;54543;50.712;6.070;2023-07-13T11:12:01;2.97;;;1.20;;
67747;SDS011;54543;50.712;6.070;2023-07-13T11:14:36;4.05;;;1.50;;
67747;SDS011;54543;50.712;6.070;2023-07-13T11:17:33;3.00;;;1.42;;
67747;SDS011;54543;50.712;6.070;2023-07-13T11:22:46;3.53;;;1.50;;
67747;SDS011;54543;50.712;6.070;2023-07-13T11:25:33;3.20;;;1.70;;
67747;SDS011;54543;50.712;6.070;2023-07-13T11:28:13;3.00;;;1.40;;
67747;SDS011;54543;50.712;6.070;2023-07-13T11:30:46;3.42;;;1.45;;
67747;SDS011;54543;50.712;6.070;2023-07-13T11:38:42;4.63;;;1.70;;
67747;SDS011;54543;50.712;6.070;2023-07-13T11:46:42;4.20;;;1.52;;
67747;SDS011;54543;50.712;6.070;2023-07-13T11:49:11;3.53;;;1.60;;
67747;SDS011;54543;50.712;6.070;2023-07-13T11:51:40;2.88;;;1.45;;
67747;SDS011;54543;50.712;6.070;2023-07-13T11:54:10;2.42;;;1.23;;
67747;SDS011;54543;50.712;6.070;2023-07-13T11:56:43;3.00;;;1.50;;
67747;SDS011;54543;50.712;6.070;2023-07-13T11:59:10;6.13;;;1.52;;
67747;SDS011;54543;50.712;6.070;2023-07-13T12:01:42;4.80;;;1.30;;
67747;SDS011;54543;50.712;6.070;2023-07-13T12:04:24;1.80;;;1.10;;
67747;SDS011;54543;50.712;6.070;2023-07-13T12:06:56;2.55;;;1.20;;
67747;SDS011;54543;50.712;6.070;2023-07-13T12:09:29;3.38;;;1.30;;
67747;SDS011;54543;50.712;6.070;2023-07-13T12:11:56;2.58;;;1.25;;
67747;SDS011;54543;50.712;6.070;2023-07-13T12:14:25;3.10;;;1.23;;
67747;SDS011;54543;50.712;6.070;2023-07-13T12:16:51;1.92;;;1.23;;
67747;SDS011;54543;50.712;6.070;2023-07-13T12:19:27;2.47;;;1.30;;
67747;SDS011;54543;50.712;6.070;2023-07-13T12:21:54;2.03;;;1.08;;
67747;SDS011;54543;50.712;6.070;2023-07-13T12:24:22;2.72;;;1.17;;
67747;SDS011;54543;50.712;6.070;2023-07-13T12:26:53;2.72;;;1.20;;
67747;SDS011;54543;50.712;6.070;2023-07-13T12:29:23;3.78;;;1.40;;
67747;SDS011;54543;50.712;6.070;2023-07-13T12:31:49;2.28;;;1.15;;
67747;SDS011;54543;50.712;6.070;2023-07-13T12:34:19;2.47;;;1.10;;
67747;SDS011;54543;50.712;6.070;2023-07-13T12:41:51;3.25;;;1.33;;
67747;SDS011;54543;50.712;6.070;2023-07-13T12:44:20;3.00;;;1.27;;
67747;SDS011;54543;50.712;6.070;2023-07-13T12:46:56;3.28;;;1.23;;
67747;SDS011;54543;50.712;6.070;2023-07-13T12:49:39;3.33;;;1.33;;
67747;SDS011;54543;50.712;6.070;2023-07-13T12:52:12;2.90;;;1.38;;
67747;SDS011;54543;50.712;6.070;2023-07-13T12:54:41;3.33;;;1.37;;
67747;SDS011;54543;50.712;6.070;2023-07-13T12:57:07;3.38;;;1.30;;
67747;SDS011;54543;50.712;6.070;2023-07-13T12:59:41;4.93;;;1.23;;
67747;SDS011;54543;50.712;6.070;2023-07-13T13:02:29;1.63;;;1.10;;
67747;SDS011;54543;50.712;6.070;2023-07-13T13:04:56;2.22;;;1.00;;
67747;SDS011;54543;50.712;6.070;2023-07-13T13:07:23;3.15;;;1.30;;
67747;SDS011;54543;50.712;6.070;2023-07-13T13:09:48;2.45;;;1.38;;
67747;SDS011;54543;50.712;6.070;2023-07-13T13:12:14;3.22;;;1.40;;
67747;SDS011;54543;50.712;6.070;2023-07-13T13:14:40;3.78;;;1.50;;
67747;SDS011;54543;50.712;6.070;2023-07-13T13:17:14;2.40;;;1.27;;
67747;SDS011;54543;50.712;6.070;2023-07-13T13:19:46;1.92;;;1.25;;
67747;SDS011;54543;50.712;6.070;2023-07-13T13:22:12;3.28;;;1.20;;
67747;SDS011;54543;50.712;6.070;2023-07-13T13:24:39;2.00;;;1.15;;
67747;SDS011;54543;50.712;6.070;2023-07-13T13:27:04;3.83;;;1.27;;
67747;SDS011;54543;50.712;6.070;2023-07-13T13:29:31;5.13;;;1.33;;
67747;SDS011;54543;50.712;6.070;2023-07-13T13:31:58;2.28;;;1.08;;
67747;SDS011;54543;50.712;6.070;2023-07-13T13:34:25;2.50;;;1.10;;
67747;SDS011;54543;50.712;6.070;2023-07-13T13:36:51;1.85;;;1.20;;
67747;SDS011;54543;50.712;6.070;2023-07-13T13:39:19;1.95;;;1.10;;
67747;SDS011;54543;50.712;6.070;2023-07-13T13:41:50;2.95;;;1.60;;
67747;SDS011;54543;50.712;6.070;2023-07-13T13:44:17;2.05;;;1.17;;
67747;SDS011;54543;50.712;6.070;2023-07-13T13:46:44;2.00;;;1.10;;
67747;SDS011;54543;50.712;6.070;2023-07-13T13:49:16;3.65;;;1.30;;
67747;SDS011;54543;50.712;6.070;2023-07-13T13:51:49;3.67;;;1.50;;
67747;SDS011;54543;50.712;6.070;2023-07-13T13:54:16;2.33;;;1.20;;
67747;SDS011;54543;50.712;6.070;2023-07-13T13:56:43;3.40;;;1.73;;
67747;SDS011;54543;50.712;6.070;2023-07-13T13:59:10;3.22;;;1.35;;
67747;SDS011;54543;50.712;6.070;2023-07-13T14:01:36;2.85;;;1.30;;
67747;SDS011;54543;50.712;6.070;2023-07-13T14:04:03;2.05;;;1.10;;
67747;SDS011;54543;50.712;6.070;2023-07-13T14:06:30;1.50;;;1.20;;
67747;SDS011;54543;50.712;6.070;2023-07-13T14:08:57;1.27;;;0.93;;
67747;SDS011;54543;50.712;6.070;2023-07-13T14:11:22;2.10;;;1.27;;
67747;SDS011;54543;50.712;6.070;2023-07-13T14:13:49;5.32;;;1.40;;
67747;SDS011;54543;50.712;6.070;2023-07-13T14:16:18;3.10;;;1.20;;
67747;SDS011;54543;50.712;6.070;2023-07-13T14:18:46;2.65;;;1.30;;
67747;SDS011;54543;50.712;6.070;2023-07-13T14:21:16;3.08;;;1.20;;
67747;SDS011;54543;50.712;6.070;2023-07-13T14:23:44;1.92;;;1.30;;
67747;SDS011;54543;50.712;6.070;2023-07-13T14:26:11;2.17;;;1.27;;
67747;SDS011;54543;50.712;6.070;2023-07-13T14:28:41;4.68;;;1.33;;
67747;SDS011;54543;50.712;6.070;2023-07-13T14:31:08;1.27;;;1.00;;
67747;SDS011;54543;50.712;6.070;2023-07-13T14:33:34;4.00;;;1.23;;
67747;SDS011;54543;50.712;6.070;2023-07-13T14:36:00;3.92;;;1.67;;
67747;SDS011;54543;50.712;6.070;2023-07-13T14:38:26;2.58;;;1.17;;
67747;SDS011;54543;50.712;6.070;2023-07-13T14:40:52;1.58;;;1.15;;
67747;SDS011;54543;50.712;6.070;2023-07-13T14:43:17;2.90;;;1.30;;
67747;SDS011;54543;50.712;6.070;2023-07-13T14:45:46;1.85;;;1.00;;
67747;SDS011;54543;50.712;6.070;2023-07-13T14:48:21;3.15;;;1.30;;
67747;SDS011;54543;50.712;6.070;2023-07-13T14:50:58;2.33;;;1.40;;
67747;SDS011;54543;50.712;6.070;2023-07-13T14:53:27;1.98;;;1.27;;
67747;SDS011;54543;50.712;6.070;2023-07-13T14:55:53;1.58;;;1.20;;
67747;SDS011;54543;50.712;6.070;2023-07-13T14:58:19;2.92;;;1.40;;
67747;SDS011;54543;50.712;6.070;2023-07-13T15:00:44;3.08;;;1.17;;
67747;SDS011;54543;50.712;6.070;2023-07-13T15:03:21;2.05;;;1.20;;
67747;SDS011;54543;50.712;6.070;2023-07-13T15:05:49;2.40;;;1.30;;
67747;SDS011;54543;50.712;6.070;2023-07-13T15:08:16;4.75;;;1.48;;
67747;SDS011;54543;50.712;6.070;2023-07-13T15:10:42;2.33;;;1.13;;
67747;SDS011;54543;50.712;6.070;2023-07-13T15:13:13;2.42;;;1.35;;
67747;SDS011;54543;50.712;6.070;2023-07-13T15:15:42;2.70;;;1.33;;
67747;SDS011;54543;50.712;6.070;2023-07-13T15:18:11;2.17;;;1.20;;
67747;SDS011;54543;50.712;6.070;2023-07-13T15:20:37;3.80;;;1.00;;
67747;SDS011;54543;50.712;6.070;2023-07-13T15:23:03;3.90;;;1.30;;
67747;SDS011;54543;50.712;6.070;2023-07-13T15:25:31;2.03;;;1.10;;
67747;SDS011;54543;50.712;6.070;2023-07-13T15:27:58;2.17;;;1.10;;
67747;SDS011;54543;50.712;6.070;2023-07-13T15:30:26;1.98;;;0.90;;
67747;SDS011;54543;50.712;6.070;2023-07-13T15:32:55;1.13;;;0.90;;
67747;SDS011;54543;50.712;6.070;2023-07-13T15:35:26;1.85;;;1.15;;
67747;SDS011;54543;50.712;6.070;2023-07-13T15:37:53;3.67;;;1.73;;